This is the latest recevied weather packets stored in our database for station/object KN1OBI-13. If no packets are shown the sender has not sent any weather packets the latest 10 day(s).
| Time | Temp. | Humidity | Pressure | Rain* | Wind** | Luminosity | Snow |
|---|---|---|---|---|---|---|---|
| 1777049901 | 15.56° C | 24% | 989.1 hPa | 0 mm | - | - | - |
| 1777049300 | 15° C | 27% | 989 hPa | 0 mm | - | - | - |
| 1777048100 | 13.89° C | 27% | 989.1 hPa | 0 mm | - | - | - |
| 1777046300 | 13.33° C | 29% | 989.6 hPa | 0 mm | - | - | - |
| 1777045700 | 13.33° C | 30% | 989.5 hPa | 0 mm | - | - | - |
| 1777044499 | 12.78° C | 31% | 989.9 hPa | 0 mm | - | - | - |
| 1777041499 | 10.56° C | 34% | 990.2 hPa | 0 mm | - | - | - |
| 1777039700 | 9.44° C | 37% | 990.4 hPa | 0 mm | - | - | - |
| 1777037300 | 8.89° C | 39% | 990.3 hPa | 0 mm | - | - | - |
| 1777036700 | 9.44° C | 38% | 990.3 hPa | 0 mm | - | - | - |
| 1777035499 | 9.44° C | 38% | 990.3 hPa | 0 mm | - | - | - |
| 1777034899 | 9.44° C | 45% | 990.3 hPa | 0 mm | - | - | - |
| 1777033699 | 8.89° C | 45% | 990.3 hPa | 0 mm | - | - | - |
| 1777030699 | 7.22° C | 62% | 990.3 hPa | 0 mm | - | - | - |
| 1777030100 | 4.44° C | 67% | 990.2 hPa | 0 mm | - | - | - |
| 1777029500 | 3.33° C | 72% | 990.4 hPa | 0 mm | - | - | - |
| 1777028300 | 2.22° C | 75% | 990.4 hPa | 0 mm | - | - | - |
| 1777027100 | 2.22° C | 76% | 990.3 hPa | 0 mm | - | - | - |
| 1777025900 | 1.11° C | 76% | 989.9 hPa | 0 mm | - | - | - |
| 1777025300 | 1.67° C | 75% | 990.1 hPa | 0 mm | - | - | - |
| 1777024100 | 1.67° C | 76% | 989.8 hPa | 0 mm | - | - | - |
| 1777022299 | 1.67° C | 73% | 989.2 hPa | 0 mm | - | - | - |
| 1777021101 | 2.22° C | 72% | 989.5 hPa | 0 mm | - | - | - |
| 1777019900 | 2.78° C | 70% | 989.4 hPa | 0 mm | - | - | - |
| 1777019300 | 3.33° C | 70% | 989.2 hPa | 0 mm | - | - | - |
* Rain latest hour (hover to see other rain measurements)
** Current wind speed in m/s (hover to see current wind gust speed)